Waynetown, IN (47990)

10:46 AM EDT on April 21, 2015 (GMT -0400)
Winslow Drive | | Change Station
CLOSE
Current Station
Personal Weather Station
Location: Crawfordsville, IN
Elevation: 725 ft
Nearby Weather Stations
Active Advisory: Wind Advisory

Elev 725 ft 40.04 °N, 86.95 °W | Updated 22 seconds ago

Clear
Clear
52.9 °F
Feels Like 52.9 °F
N
2.0
Wind Variable Wind from SW
Gusts 2.5 mph

Today
High -- | Low -- °F
--% Chance of Precip.
Yesterday
High -- | Low -- °F
Precip. -- in
7:01 AM 8:32 PM
Waxing Crescent, 11% visible
Pressure 29.73 in
Visibility 10.0 miles
Clouds Clear
Dew Point 32 °F
Humidity 45%
Rainfall 0.00 in
Snow Depth Not available.
UV 4.0 out of 12
Pollen 11.50 out of 12
Air Quality Not available.
Flu Activity Local Activity
METAR KLAF 211354Z 25012KT 10SM CLR 08/01 A2972 RMK AO2 SLP065 T00830006

More Conditions Fewer Conditions

Pressure 29.73 in
Visibility 10.0 miles
Clouds Clear
Dew Point 32 °F
Humidity 45%
Rainfall 0.00 in
Snow Depth Not available.
UV 4.0 out of 12
Pollen 11.50 out of 12
Air Quality Not available.
Flu Activity Local Activity
METAR KLAF 211354Z 25012KT 10SM CLR 08/01 A2972 RMK AO2 SLP065 T00830006

More Conditions Fewer Conditions

10-Day Weather Forecast

Almanac

Astronomy

Apr. 21, 2015 Rise Set
Actual Time
Civil Twilight
Nautical Twilight
Astronomical Twilight
Moon
Length of Visible Light
Length of Day
Tomorrow will be .
, % of the Moon is Illuminated

Today's Extremes

State Highs State Lows

Community

WunderPhotos

Upload Photos

1,815,413 photos uploaded!

WunderBlogs® & News

Nearby

Air Quality

  Air Quality AQ Index Pollutant
Not available.

Snow Depth

Station Depth Elevation

Earthquake Activity

City Distance Mag. Time & Date
Minimum magnitude displayed is 2.5.

Coastal Water Temperatures

Place Temperature

Stations

Nearby Weather Stations

Station Location Temp. Windchill Dew Point Humidity Wind Precip. Elev Updated Type
                   
Wind Advisory
Statement as of 10:05 AM EDT on April 21, 2015

... Wind Advisory remains in effect until 8 PM EDT this evening...

A Wind Advisory remains in effect until 8 PM EDT this evening.

* Timing: 11 am until 8 PM.

* Winds: 40 to 50 mph westerly wind gusts

* impacts: unsecured objects will be blown about. Driving will
be difficult for high profile vehicles.

Precautionary/preparedness actions...

A Wind Advisory means that winds of 35 mph are expected. Winds
this strong can make driving difficult... especially for high
profile vehicles. Use extra caution.